Time;durP1;ratioP1;P1;durP2;ratioP2;P2;SDS_P1;SDS_P2;PMS_P1;PMS_P2;Temp;Humidity;BMP_temperature;BMP_pressure;BME280_temperature;BME280_humidity;BME280_pressure;Samples;Min_cycle;Max_cycle;Signal;HPM_P1;HPM_P2
2022/03/14 00:00:03;;;;;;;9.03;8.10;;;;;;;0.29;50.13;97172.47;4947129;28;20211;-50
2022/03/14 00:02:32;;;;;;;7.80;7.00;;;;;;;0.38;50.17;97182.22;4940124;28;20641;-52
2022/03/14 00:05:00;;;;;;;8.53;7.63;;;;;;;0.45;49.33;97192.97;4909777;28;20230;-51
2022/03/14 00:07:31;;;;;;;9.10;7.63;;;;;;;0.62;49.13;97193.44;4929971;28;20326;-51
2022/03/14 00:09:59;;;;;;;8.17;7.43;;;;;;;0.43;49.40;97197.47;4941879;28;20199;-51
2022/03/14 00:12:31;;;;;;;8.93;8.03;;;;;;;0.68;49.10;97204.19;4945366;28;20308;-53
2022/03/14 00:14:59;;;;;;;8.27;7.50;;;;;;;0.70;47.54;97201.47;4944671;28;20229;-53
2022/03/14 00:17:28;;;;;;;10.17;8.37;;;;;;;0.71;47.36;97205.75;4945437;28;20226;-53
2022/03/14 00:19:59;;;;;;;9.10;7.20;;;;;;;0.67;47.12;97209.56;4907154;28;20203;-54
2022/03/14 00:22:27;;;;;;;8.90;6.87;;;;;;;0.33;47.77;97201.75;4945604;28;20284;-54
2022/03/14 00:24:56;;;;;;;8.10;7.30;;;;;;;0.24;48.43;97209.34;4930347;28;20203;-56
2022/03/14 00:27:24;;;;;;;9.30;7.20;;;;;;;0.47;48.16;97201.50;4947103;28;20222;-56
2022/03/14 00:29:54;;;;;;;9.33;6.73;;;;;;;0.34;48.69;97206.84;4945089;28;20207;-53
2022/03/14 00:32:23;;;;;;;7.73;7.03;;;;;;;0.48;47.60;97202.34;4949976;28;20202;-53
2022/03/14 00:34:51;;;;;;;8.53;7.23;;;;;;;0.36;48.49;97211.94;4908846;28;20209;-61
2022/03/14 00:37:20;;;;;;;8.90;7.00;;;;;;;0.43;47.47;97213.97;4948556;28;20582;-55
2022/03/14 00:39:48;;;;;;;7.23;6.50;;;;;;;0.52;48.39;97214.19;4938151;28;20217;-59
2022/03/14 00:42:20;;;;;;;8.63;6.90;;;;;;;0.31;48.10;97212.28;4945712;28;20206;-56
2022/03/14 00:44:48;;;;;;;7.63;6.93;;;;;;;0.26;47.98;97214.41;4945259;28;20217;-59
2022/03/14 00:47:18;;;;;;;8.90;7.97;;;;;;;0.39;49.03;97236.00;4948953;28;20226;-57
2022/03/14 00:49:47;;;;;;;9.70;7.37;;;;;;;0.69;47.46;97231.13;4918038;28;20751;-59
2022/03/14 00:52:17;;;;;;;8.40;7.53;;;;;;;0.69;47.49;97223.28;4951800;28;20214;-53
2022/03/14 00:54:46;;;;;;;7.83;7.07;;;;;;;0.13;49.40;97224.94;4936050;28;20203;-58
2022/03/14 00:57:15;;;;;;;7.17;6.47;;;;;;;-0.19;50.86;97225.63;4946742;28;20739;-49
2022/03/14 00:59:43;;;;;;;9.47;8.40;;;;;;;-0.41;52.64;97232.44;4943427;28;20213;-60
2022/03/14 01:02:12;;;;;;;10.00;7.27;;;;;;;-0.60;54.06;97227.75;4947971;28;20942;-57
2022/03/14 01:04:43;;;;;;;8.13;7.33;;;;;;;-0.21;50.90;97236.16;4931635;28;20199;-60
2022/03/14 01:07:11;;;;;;;7.20;6.50;;;;;;;-0.32;51.65;97241.34;4943157;28;20246;-51
2022/03/14 01:09:39;;;;;;;8.20;7.40;;;;;;;-0.07;49.59;97244.72;4941918;28;20213;-60
2022/03/14 01:12:08;;;;;;;7.03;6.30;;;;;;;0.01;50.63;97249.34;4936500;28;20206;-53
2022/03/14 01:14:37;;;;;;;9.47;8.67;;;;;;;-0.05;50.10;97240.22;4946854;28;20229;-58
2022/03/14 01:17:05;;;;;;;7.73;6.93;;;;;;;-0.22;50.50;97242.31;4948154;28;20966;-52
2022/03/14 01:19:34;;;;;;;8.53;7.70;;;;;;;-0.31;49.92;97230.81;4950488;28;20991;-60
2022/03/14 01:22:09;;;;;;;8.30;7.37;;;;;;;-0.20;49.56;97250.00;4908518;28;20238;-56
2022/03/14 01:24:43;;;;;;;10.30;7.53;;;;;;;0.17;48.46;97242.00;4946922;28;20190;-56
2022/03/14 01:27:12;;;;;;;8.47;7.03;;;;;;;0.17;49.44;97239.41;4936965;28;20236;-55
2022/03/14 01:29:40;;;;;;;9.67;7.27;;;;;;;0.11;50.50;97237.28;4945677;28;20298;-54
2022/03/14 01:32:10;;;;;;;7.80;6.87;;;;;;;-0.03;49.46;97241.75;4945601;28;20207;-54
2022/03/14 01:34:38;;;;;;;11.40;8.53;;;;;;;0.10;49.39;97240.81;4945537;28;20230;-56
2022/03/14 01:37:07;;;;;;;10.73;7.53;;;;;;;-0.09;50.53;97251.81;4911676;28;20233;-53
2022/03/14 01:39:35;;;;;;;8.37;7.57;;;;;;;-0.41;50.54;97255.88;4948483;28;20202;-59
2022/03/14 01:42:04;;;;;;;7.50;6.80;;;;;;;-0.21;51.97;97253.53;4933152;28;20329;-56
2022/03/14 01:44:32;;;;;;;7.23;6.40;;;;;;;-0.33;51.71;97255.31;4924714;28;20981;-52
2022/03/14 01:47:00;;;;;;;8.77;7.87;;;;;;;-0.16;52.08;97256.66;4946721;28;20241;-52
2022/03/14 01:49:28;;;;;;;8.37;7.53;;;;;;;-0.46;50.77;97260.59;4945370;28;20290;-58
2022/03/14 01:51:58;;;;;;;8.47;7.33;;;;;;;-0.32;50.81;97259.56;4912919;28;20222;-59
2022/03/14 01:54:28;;;;;;;8.40;7.60;;;;;;;-0.24;50.79;97259.84;4941134;28;20862;-54
2022/03/14 01:56:57;;;;;;;8.63;7.60;;;;;;;-0.03;50.26;97266.97;4935163;28;20244;-56
2022/03/14 01:59:26;;;;;;;10.33;7.50;;;;;;;-0.27;50.39;97264.44;4946633;28;20881;-57
2022/03/14 02:01:55;;;;;;;10.53;7.77;;;;;;;-0.34;50.70;97254.47;4948819;28;20210;-62
2022/03/14 02:04:23;;;;;;;9.73;8.40;;;;;;;-0.45;51.72;97270.06;4941543;28;20198;-57
2022/03/14 02:06:53;;;;;;;8.97;7.47;;;;;;;-0.25;51.82;97285.97;4948979;28;20218;-50
2022/03/14 02:09:21;;;;;;;8.20;7.40;;;;;;;-0.22;51.94;97283.13;4906724;28;20222;-60
2022/03/14 02:12:06;;;;;;;8.67;7.57;;;;;;;-0.38;53.54;97299.06;4950152;28;20210;-54
2022/03/14 02:14:39;;;;;;;8.27;7.30;;;;;;;-0.48;55.36;97304.94;4932847;28;20218;-55
2022/03/14 02:17:09;;;;;;;11.10;8.03;;;;;;;-0.83;60.51;97305.69;4949367;28;20226;-58
2022/03/14 02:19:37;;;;;;;10.20;8.23;;;;;;;-0.99;60.83;97303.34;4944081;28;20623;-54
2022/03/14 02:22:13;;;;;;;8.87;7.97;;;;;;;-1.01;59.13;97310.44;4948028;28;20246;-57
2022/03/14 02:24:42;;;;;;;9.93;7.67;;;;;;;-1.06;59.74;97317.75;4937892;28;20200;-56
2022/03/14 02:27:12;;;;;;;11.10;8.93;;;;;;;-1.20;64.76;97313.50;4948733;28;20222;-57
2022/03/14 02:29:40;;;;;;;10.80;9.27;;;;;;;-1.18;70.12;97317.66;4935680;28;20979;-59
2022/03/14 02:32:11;;;;;;;13.13;9.10;;;;;;;-1.41;76.87;97321.88;4923715;28;20735;-58
2022/03/14 02:34:39;;;;;;;11.70;9.23;;;;;;;-1.48;81.96;97318.03;4947452;28;20226;-59
2022/03/14 02:37:09;;;;;;;11.53;9.87;;;;;;;-1.66;87.82;97328.72;4950573;28;20234;-58
2022/03/14 02:39:38;;;;;;;9.90;8.40;;;;;;;-1.38;88.06;97324.25;4913232;28;20313;-51
2022/03/14 02:42:07;;;;;;;9.57;8.67;;;;;;;-1.57;91.81;97324.66;4951277;28;20911;-56
2022/03/14 02:44:43;;;;;;;10.83;9.73;;;;;;;-1.87;98.85;97333.59;4927706;28;20210;-54
2022/03/14 02:47:12;;;;;;;11.63;9.07;;;;;;;-1.71;95.53;97336.00;4949899;28;20360;-56
2022/03/14 02:49:40;;;;;;;10.13;8.47;;;;;;;-1.93;99.32;97339.19;4949371;28;20230;-56
2022/03/14 02:52:10;;;;;;;12.10;9.50;;;;;;;-2.04;100.00;97343.34;4948486;28;20245;-59
2022/03/14 02:54:40;;;;;;;9.33;8.40;;;;;;;-1.90;99.41;97347.59;4913100;28;20911;-58
2022/03/14 02:57:09;;;;;;;9.60;8.53;;;;;;;-2.14;100.00;97339.66;4949863;28;20284;-57
2022/03/14 02:59:37;;;;;;;9.10;8.17;;;;;;;-2.08;100.00;97346.22;4928596;28;20202;-54
2022/03/14 03:02:06;;;;;;;10.17;8.03;;;;;;;-2.22;100.00;97347.97;4948515;28;20390;-56
2022/03/14 03:04:35;;;;;;;10.47;8.87;;;;;;;-2.08;100.00;97354.03;4949306;28;20257;-54
2022/03/14 03:07:04;;;;;;;8.93;8.03;;;;;;;-2.08;100.00;97372.19;4951296;28;20245;-52
2022/03/14 03:09:33;;;;;;;10.63;8.83;;;;;;;-1.66;96.92;97374.66;4908575;28;21980;-54
2022/03/14 03:12:02;;;;;;;9.17;8.27;;;;;;;-1.66;94.23;97375.50;4948638;28;20294;-54
2022/03/14 03:14:31;;;;;;;10.97;8.57;;;;;;;-1.73;95.87;97376.00;4926700;28;20309;-53
2022/03/14 03:17:00;;;;;;;8.80;7.90;;;;;;;-1.80;96.03;97383.38;4950095;28;20254;-54
2022/03/14 03:19:29;;;;;;;9.40;8.40;;;;;;;-1.82;98.55;97380.06;4943475;28;20214;-55
2022/03/14 03:21:58;;;;;;;8.27;7.47;;;;;;;-2.11;100.00;97380.19;4948445;28;20842;-55
2022/03/14 03:24:26;;;;;;;9.03;8.00;;;;;;;-2.15;100.00;97386.50;4909184;28;20211;-60
2022/03/14 03:26:56;;;;;;;11.07;8.70;;;;;;;-2.21;100.00;97398.13;4949407;28;20230;-53
2022/03/14 03:29:25;;;;;;;10.40;9.33;;;;;;;-2.27;100.00;97388.13;4928429;28;20230;-60
2022/03/14 03:31:53;;;;;;;10.50;9.03;;;;;;;-2.12;100.00;97399.28;4948584;28;20203;-56
2022/03/14 03:34:22;;;;;;;9.57;8.60;;;;;;;-2.23;100.00;97408.63;4945076;28;20237;-55
2022/03/14 03:36:50;;;;;;;9.80;8.33;;;;;;;-2.35;100.00;97407.63;4945142;28;20317;-54
2022/03/14 03:39:19;;;;;;;11.53;8.63;;;;;;;-2.32;100.00;97409.19;4946782;28;20266;-57
2022/03/14 03:41:47;;;;;;;12.97;8.93;;;;;;;-2.36;100.00;97408.56;4910760;28;20882;-53
2022/03/14 03:44:17;;;;;;;10.20;9.10;;;;;;;-2.16;100.00;97416.00;4944980;28;20279;-51
2022/03/14 03:46:45;;;;;;;11.73;10.33;;;;;;;-2.23;100.00;97425.94;4922763;28;20280;-55
2022/03/14 03:49:14;;;;;;;8.20;7.43;;;;;;;-2.38;100.00;97430.31;4948020;28;20346;-57
2022/03/14 03:51:42;;;;;;;9.10;7.87;;;;;;;-2.38;100.00;97444.16;4947303;28;20286;-55
2022/03/14 03:54:11;;;;;;;9.90;8.13;;;;;;;-2.34;100.00;97450.81;4943978;28;20207;-57
2022/03/14 03:56:39;;;;;;;10.17;8.47;;;;;;;-2.45;100.00;97457.59;4914020;28;20329;-52
2022/03/14 03:59:08;;;;;;;9.60;8.13;;;;;;;-2.64;100.00;97475.13;4947917;28;20211;-58
2022/03/14 04:01:37;;;;;;;9.43;8.30;;;;;;;-2.77;100.00;97475.03;4931663;28;20929;-54
2022/03/14 04:04:07;;;;;;;8.53;7.63;;;;;;;-2.86;100.00;97472.16;4952021;28;20297;-60
2022/03/14 04:06:36;;;;;;;10.13;9.03;;;;;;;-2.67;100.00;97488.31;4952415;28;20269;-52
2022/03/14 04:09:06;;;;;;;10.13;9.10;;;;;;;-2.83;100.00;97493.56;4953393;28;20241;-57
2022/03/14 04:11:36;;;;;;;10.63;9.53;;;;;;;-2.79;100.00;97509.81;4927668;28;20202;-60
2022/03/14 04:14:05;;;;;;;12.07;9.17;;;;;;;-2.84;100.00;97522.19;4946031;28;20269;-54
2022/03/14 04:16:34;;;;;;;10.83;8.87;;;;;;;-2.83;100.00;97503.94;4943419;28;20230;-60
2022/03/14 04:19:04;;;;;;;11.40;8.87;;;;;;;-2.96;100.00;97513.41;4947148;28;20210;-55
2022/03/14 04:21:34;;;;;;;11.85;10.68;;;;;;;-3.08;100.00;97504.59;4950508;28;20544;-59
2022/03/14 04:24:05;;;;;;;11.13;10.00;;;;;;;-3.18;100.00;97508.66;4950874;28;20609;-52
2022/03/14 04:26:33;;;;;;;12.80;10.10;;;;;;;-3.18;100.00;97506.06;4944972;28;20582;-58
2022/03/14 04:29:02;;;;;;;12.50;8.67;;;;;;;-3.08;100.00;97507.19;4902182;28;20281;-55
2022/03/14 04:31:30;;;;;;;10.67;9.67;;;;;;;-3.11;100.00;97515.13;4930766;28;20230;-61
2022/03/14 04:33:59;;;;;;;11.37;9.50;;;;;;;-3.08;100.00;97509.78;4937653;28;20450;-51
2022/03/14 04:36:29;;;;;;;10.77;9.67;;;;;;;-2.93;100.00;97519.22;4948665;28;20749;-54
2022/03/14 04:38:57;;;;;;;12.47;9.93;;;;;;;-2.92;100.00;97520.06;4946170;28;20518;-57
2022/03/14 04:41:25;;;;;;;12.47;9.97;;;;;;;-3.02;100.00;97527.56;4950715;28;20257;-57
2022/03/14 04:43:54;;;;;;;12.73;11.10;;;;;;;-2.79;100.00;97530.56;4906464;28;20346;-57
2022/03/14 04:46:23;;;;;;;14.50;12.10;;;;;;;-2.70;100.00;97539.53;4927463;28;20292;-55
2022/03/14 04:48:51;;;;;;;15.40;10.83;;;;;;;-2.38;100.00;97542.78;4930129;28;20297;-54
2022/03/14 04:51:20;;;;;;;11.47;10.00;;;;;;;-2.51;100.00;97554.81;4950059;28;20544;-53
2022/03/14 04:53:50;;;;;;;10.27;8.93;;;;;;;-2.55;100.00;97551.59;4949554;28;20261;-55
2022/03/14 04:56:18;;;;;;;12.13;10.80;;;;;;;-2.40;100.00;97575.78;4950364;28;20226;-57
2022/03/14 04:58:47;;;;;;;12.70;9.27;;;;;;;-2.45;100.00;97564.84;4898647;28;21952;-51
2022/03/14 05:01:15;;;;;;;11.97;9.87;;;;;;;-2.53;100.00;97585.22;4950662;28;20458;-54
2022/03/14 05:03:44;;;;;;;13.03;9.50;;;;;;;-2.47;100.00;97582.25;4941201;28;20452;-50
2022/03/14 05:06:12;;;;;;;10.53;9.43;;;;;;;-2.59;100.00;97604.59;4951737;28;20781;-54
2022/03/14 05:08:40;;;;;;;10.13;9.07;;;;;;;-2.33;100.00;97607.38;4948603;28;20257;-55
2022/03/14 05:11:11;;;;;;;13.10;9.27;;;;;;;-2.42;100.00;97613.97;4950165;28;20781;-55
2022/03/14 05:13:40;;;;;;;13.20;9.03;;;;;;;-2.29;100.00;97621.81;4946578;28;20675;-59
2022/03/14 05:16:08;;;;;;;11.87;9.57;;;;;;;-2.35;100.00;97628.25;4912960;28;20258;-61
2022/03/14 05:18:37;;;;;;;10.27;9.23;;;;;;;-2.38;100.00;97636.22;4926336;28;20234;-62
2022/03/14 05:21:06;;;;;;;10.60;9.57;;;;;;;-2.25;100.00;97645.84;4949669;28;20231;-62
2022/03/14 05:23:35;;;;;;;9.37;8.47;;;;;;;-1.99;100.00;97648.66;4948509;28;20213;-59
2022/03/14 05:26:04;;;;;;;12.77;10.13;;;;;;;-2.06;100.00;97663.75;4948115;28;20210;-53
2022/03/14 05:28:34;;;;;;;12.10;9.23;;;;;;;-1.97;100.00;97663.19;4948489;28;20326;-59
2022/03/14 05:31:02;;;;;;;13.43;10.03;;;;;;;-1.71;100.00;97675.50;4914905;28;20225;-55
2022/03/14 05:33:31;;;;;;;10.87;8.43;;;;;;;-1.80;100.00;97674.31;4942082;28;20203;-60
2022/03/14 05:36:01;;;;;;;12.87;9.27;;;;;;;-1.63;100.00;97675.88;4948028;28;20229;-56
2022/03/14 05:38:29;;;;;;;13.27;9.40;;;;;;;-1.59;100.00;97682.56;4952217;28;20226;-59
2022/03/14 05:40:57;;;;;;;10.93;8.97;;;;;;;-1.46;100.00;97687.84;4950823;28;20257;-58
2022/03/14 05:43:26;;;;;;;10.67;9.57;;;;;;;-1.43;100.00;97692.00;4950816;28;20328;-56
2022/03/14 05:45:56;;;;;;;12.00;10.40;;;;;;;-1.29;100.00;97698.94;4909614;28;25364;-56
2022/03/14 05:48:24;;;;;;;10.00;9.03;;;;;;;-1.41;100.00;97710.91;4950410;28;20230;-58
2022/03/14 05:50:53;;;;;;;13.80;9.87;;;;;;;-1.30;100.00;97692.91;4929777;28;20289;-56
2022/03/14 05:53:21;;;;;;;9.73;8.67;;;;;;;-1.35;100.00;97701.00;4949171;28;20213;-52
2022/03/14 05:55:49;;;;;;;14.23;8.97;;;;;;;-1.31;100.00;97701.66;4948217;28;21217;-57
2022/03/14 05:58:18;;;;;;;11.37;9.93;;;;;;;-1.27;100.00;97710.91;4949428;28;20258;-54
2022/03/14 06:00:48;;;;;;;12.37;10.70;;;;;;;-1.08;100.00;97713.19;4913999;28;21403;-53
2022/03/14 06:03:19;;;;;;;11.47;9.53;;;;;;;-1.11;100.00;97723.78;4947885;28;20342;-52
2022/03/14 06:05:49;;;;;;;11.23;10.03;;;;;;;-1.13;100.00;97732.59;4945888;28;20318;-52
2022/03/14 06:08:18;;;;;;;11.23;10.03;;;;;;;-1.12;100.00;97726.47;4953208;28;20508;-58
2022/03/14 06:10:46;;;;;;;10.93;9.83;;;;;;;-1.19;100.00;97733.81;4946037;28;20268;-55
2022/03/14 06:13:16;;;;;;;13.13;10.13;;;;;;;-1.03;100.00;97731.94;4946353;28;20662;-60
2022/03/14 06:15:45;;;;;;;14.37;10.50;;;;;;;-1.03;100.00;97716.31;4918041;28;20328;-53
2022/03/14 06:18:14;;;;;;;12.63;10.37;;;;;;;-0.97;100.00;97728.09;4899639;28;20237;-54
2022/03/14 06:20:43;;;;;;;16.73;10.33;;;;;;;-0.92;100.00;97741.66;4942597;28;20217;-54
2022/03/14 06:23:12;;;;;;;13.27;10.00;;;;;;;-1.11;100.00;97751.53;4943084;28;20238;-60
2022/03/14 06:25:40;;;;;;;10.47;9.17;;;;;;;-0.56;100.00;97757.59;4952331;28;20226;-52
2022/03/14 06:28:09;;;;;;;10.57;9.37;;;;;;;-0.83;100.00;97768.00;4927509;28;20714;-57
2022/03/14 06:30:37;;;;;;;12.73;10.37;;;;;;;-0.63;100.00;97790.16;4946343;28;20290;-55
2022/03/14 06:33:06;;;;;;;13.80;9.37;;;;;;;-0.81;100.00;97792.16;4906157;28;20302;-59
2022/03/14 06:35:38;;;;;;;14.60;10.67;;;;;;;-0.49;100.00;97791.88;4944381;28;20213;-55
2022/03/14 06:38:10;;;;;;;15.13;10.40;;;;;;;-0.19;100.00;97799.44;4944799;28;20226;-57
2022/03/14 06:40:39;;;;;;;11.10;9.10;;;;;;;-0.03;95.99;97794.06;4950077;28;20214;-57
2022/03/14 06:43:08;;;;;;;10.50;9.40;;;;;;;0.35;92.19;97802.00;4932673;28;20761;-56
2022/03/14 06:45:39;;;;;;;10.93;9.40;;;;;;;0.82;87.37;97808.34;4946008;28;20242;-54
2022/03/14 06:48:08;;;;;;;15.67;9.73;;;;;;;0.91;87.49;97816.44;4903602;28;20356;-54
2022/03/14 06:50:36;;;;;;;10.77;9.30;;;;;;;0.76;93.23;97831.41;4943680;28;20238;-53
2022/03/14 06:53:05;;;;;;;20.80;9.80;;;;;;;1.06;89.54;97820.63;4945742;28;20223;-61
2022/03/14 06:55:35;;;;;;;15.30;9.70;;;;;;;0.76;86.92;97813.97;4946561;28;20235;-54
2022/03/14 06:58:04;;;;;;;33.87;14.00;;;;;;;0.96;84.65;97827.44;4932324;28;20305;-59
2022/03/14 07:00:32;;;;;;;12.23;9.43;;;;;;;1.42;81.36;97816.31;4944327;28;20286;-56
2022/03/14 07:03:00;;;;;;;11.03;9.83;;;;;;;1.42;79.92;97823.31;4901232;28;20258;-54
2022/03/14 07:05:29;;;;;;;38.10;12.23;;;;;;;1.59;78.66;97827.31;4944256;28;20298;-52
2022/03/14 07:07:58;;;;;;;13.77;10.20;;;;;;;1.64;75.57;97840.88;4942220;28;20296;-56
2022/03/14 07:10:26;;;;;;;18.90;12.07;;;;;;;2.14;76.06;97838.09;4942566;28;20270;-59
2022/03/14 07:12:57;;;;;;;10.57;9.47;;;;;;;2.22;69.22;97848.00;4932160;28;20236;-58
2022/03/14 07:15:25;;;;;;;11.43;9.20;;;;;;;2.21;66.79;97861.16;4958663;28;20213;-57
2022/03/14 07:17:55;;;;;;;11.47;10.27;;;;;;;2.21;67.66;97851.56;4931958;28;20323;-60
2022/03/14 07:20:25;;;;;;;13.77;11.90;;;;;;;2.59;62.84;97845.22;4948389;28;20463;-54
2022/03/14 07:22:55;;;;;;;24.67;11.10;;;;;;;2.64;63.13;97836.19;4951143;28;20240;-59
2022/03/14 07:25:25;;;;;;;17.67;11.07;;;;;;;2.82;63.19;97844.41;4964010;28;20207;-49
2022/03/14 07:27:56;;;;;;;11.10;9.97;;;;;;;3.08;61.52;97865.94;4963284;28;20331;-55
2022/03/14 07:30:24;;;;;;;13.90;9.83;;;;;;;3.22;62.90;97861.38;4951560;28;20296;-51
2022/03/14 07:32:53;;;;;;;14.80;9.87;;;;;;;3.06;62.75;97869.63;4936714;28;20205;-59
2022/03/14 07:35:23;;;;;;;17.20;10.23;;;;;;;2.94;63.97;97877.47;4951063;28;20209;-58
2022/03/14 07:37:52;;;;;;;14.47;10.03;;;;;;;2.46;67.65;97870.63;4966578;28;20225;-56
2022/03/14 07:40:20;;;;;;;13.00;10.07;;;;;;;2.56;69.22;97876.00;4959882;28;20229;-51
2022/03/14 07:42:53;;;;;;;9.90;8.97;;;;;;;2.69;67.78;97892.47;4967975;28;20209;-55
2022/03/14 07:45:24;;;;;;;10.70;9.47;;;;;;;2.99;66.59;97911.16;4954561;28;20221;-54
2022/03/14 07:47:54;;;;;;;10.43;9.43;;;;;;;2.91;66.72;97910.91;4934746;28;20225;-58
2022/03/14 07:50:23;;;;;;;10.13;9.10;;;;;;;2.92;66.16;97925.69;4964117;28;20824;-56
2022/03/14 07:52:52;;;;;;;12.83;9.87;;;;;;;2.92;66.24;97923.06;4962217;28;20288;-55
2022/03/14 07:55:20;;;;;;;13.50;9.93;;;;;;;2.97;62.16;97919.13;4977141;28;20210;-53
2022/03/14 07:57:48;;;;;;;11.60;9.30;;;;;;;3.07;61.30;97918.44;4971420;28;20373;-57
2022/03/14 08:00:20;;;;;;;10.30;9.20;;;;;;;3.33;61.58;97924.25;4952945;28;22792;-56
2022/03/14 08:02:50;;;;;;;11.10;9.97;;;;;;;3.83;60.48;97933.47;4968482;28;20683;-53
2022/03/14 08:05:24;;;;;;;21.03;10.63;;;;;;;3.88;59.73;97926.91;4920518;28;20218;-51
2022/03/14 08:07:53;;;;;;;9.60;8.70;;;;;;;3.80;59.88;97926.72;4962751;28;20353;-58
2022/03/14 08:10:22;;;;;;;10.03;9.03;;;;;;;4.46;58.10;97920.50;4965146;28;20237;-51
2022/03/14 08:12:52;;;;;;;11.97;9.20;;;;;;;4.43;58.35;97906.81;4963973;28;20232;-54
2022/03/14 08:15:23;;;;;;;11.03;9.43;;;;;;;4.77;59.34;97901.38;4963369;28;20226;-56
2022/03/14 08:17:53;;;;;;;12.30;10.20;;;;;;;4.70;56.75;97900.19;4944720;28;20377;-59
2022/03/14 08:20:37;;;;;;;13.40;9.67;;;;;;;5.43;55.02;97913.25;4911981;28;20755;-55
2022/03/14 08:23:06;;;;;;;14.90;10.00;;;;;;;5.92;52.75;97910.75;4965585;28;20432;-54
2022/03/14 08:25:35;;;;;;;11.33;9.93;;;;;;;6.36;52.47;97912.19;4946534;28;20216;-52
2022/03/14 08:28:04;;;;;;;20.80;11.33;;;;;;;6.21;52.35;97920.50;4944800;28;20483;-57
2022/03/14 08:30:33;;;;;;;14.43;10.30;;;;;;;6.40;50.86;97929.34;4965703;28;20202;-57
2022/03/14 08:33:02;;;;;;;14.53;9.90;;;;;;;5.99;51.93;97939.13;4948927;28;20948;-50
2022/03/14 08:35:30;;;;;;;11.27;9.33;;;;;;;6.51;49.92;97944.19;4928528;28;20820;-54
2022/03/14 08:37:59;;;;;;;12.83;10.10;;;;;;;6.61;49.42;97958.16;4966599;28;20236;-53
2022/03/14 08:40:28;;;;;;;12.50;9.37;;;;;;;6.64;48.92;97964.97;4945399;28;20363;-52
2022/03/14 08:42:57;;;;;;;10.23;8.87;;;;;;;6.46;49.18;97978.00;4939654;28;20492;-52
2022/03/14 08:45:26;;;;;;;12.73;8.47;;;;;;;6.32;49.72;97974.81;4967623;28;20293;-53
2022/03/14 08:47:54;;;;;;;10.03;9.10;;;;;;;6.21;49.41;97986.28;4970830;28;20225;-56
2022/03/14 08:50:24;;;;;;;9.40;8.50;;;;;;;6.89;49.21;97984.63;4934938;28;20248;-58
2022/03/14 08:52:53;;;;;;;10.70;9.07;;;;;;;6.93;48.37;97991.28;4961325;28;20217;-56
2022/03/14 08:55:22;;;;;;;9.50;8.57;;;;;;;7.24;49.00;97982.34;4947303;28;20291;-52
2022/03/14 08:57:50;;;;;;;12.13;8.43;;;;;;;7.56;48.26;97983.75;4923158;28;20277;-52
2022/03/14 09:00:21;;;;;;;9.30;8.40;;;;;;;7.71;47.38;97989.38;4946426;28;20313;-56
2022/03/14 09:02:49;;;;;;;10.40;9.27;;;;;;;7.28;48.87;97993.44;4968132;28;21173;-49
2022/03/14 09:05:18;;;;;;;10.70;9.50;;;;;;;7.61;48.35;97986.81;4962906;28;20322;-52
2022/03/14 09:07:47;;;;;;;10.83;9.77;;;;;;;7.86;48.59;97991.56;4922783;28;20238;-59
2022/03/14 09:10:17;;;;;;;12.77;8.97;;;;;;;8.13;47.81;97995.97;4965066;28;20298;-48
2022/03/14 09:12:48;;;;;;;14.70;8.90;;;;;;;7.86;48.85;97991.56;4919521;28;20209;-49
2022/03/14 09:15:17;;;;;;;12.43;8.70;;;;;;;8.06;49.08;98001.00;4949066;28;20237;-51
2022/03/14 09:17:52;;;;;;;9.87;8.87;;;;;;;8.17;48.65;97988.59;4965111;28;20316;-50
2022/03/14 09:20:21;;;;;;;9.73;8.63;;;;;;;8.39;48.98;97992.63;4960629;28;20418;-54
2022/03/14 09:22:52;;;;;;;9.70;8.70;;;;;;;8.62;48.96;97986.91;4917909;28;20903;-58
2022/03/14 09:25:21;;;;;;;9.47;8.57;;;;;;;8.74;49.89;97984.88;4962492;28;20216;-52
2022/03/14 09:27:52;;;;;;;10.57;9.50;;;;;;;8.91;50.15;97988.47;4950932;28;20254;-62
2022/03/14 09:30:21;;;;;;;10.90;8.23;;;;;;;9.06;49.42;97994.03;4942166;28;20223;-53
2022/03/14 09:32:50;;;;;;;10.70;9.70;;;;;;;8.82;50.28;97992.84;4951726;28;20917;-48
2022/03/14 09:35:19;;;;;;;10.60;9.43;;;;;;;8.65;52.16;97998.00;4965208;28;20284;-54
2022/03/14 09:37:49;;;;;;;11.03;8.03;;;;;;;8.30;53.95;98004.91;4927024;28;20256;-57
2022/03/14 09:40:21;;;;;;;8.63;7.77;;;;;;;8.87;56.66;98013.53;4964087;28;20438;-52
2022/03/14 09:42:52;;;;;;;9.73;8.73;;;;;;;9.44;55.49;98010.47;4969547;28;20607;-56
2022/03/14 09:45:21;;;;;;;6.90;6.30;;;;;;;9.60;63.68;98016.84;4944135;28;20364;-54
2022/03/14 09:47:50;;;;;;;8.70;7.90;;;;;;;9.17;57.90;98004.34;4950239;28;20413;-56
2022/03/14 09:50:22;;;;;;;9.80;8.90;;;;;;;9.46;55.08;98010.31;4964443;28;20512;-51
2022/03/14 09:52:51;;;;;;;9.60;8.80;;;;;;;9.66;53.78;98003.81;4965693;28;20715;-48
2022/03/14 09:55:21;;;;;;;11.53;9.77;;;;;;;9.63;55.02;98016.53;4927474;28;20674;-54
2022/03/14 09:57:49;;;;;;;9.87;8.00;;;;;;;9.79;56.66;98021.06;4965992;28;20238;-56
2022/03/14 10:00:18;;;;;;;12.03;8.00;;;;;;;9.94;55.12;98031.88;4933796;28;20319;-53
2022/03/14 10:02:46;;;;;;;8.97;8.07;;;;;;;9.96;55.33;98032.56;4950389;28;20268;-52
2022/03/14 10:05:16;;;;;;;10.47;8.30;;;;;;;9.49;56.99;98037.28;4959948;28;20210;-56
2022/03/14 10:07:45;;;;;;;10.33;7.67;;;;;;;10.20;58.86;98031.00;4963282;28;20237;-50
2022/03/14 10:10:14;;;;;;;9.30;8.27;;;;;;;10.55;56.10;98034.44;4921475;28;20217;-50
2022/03/14 10:12:44;;;;;;;8.80;7.37;;;;;;;10.29;57.29;98035.31;4964400;28;20306;-54
2022/03/14 10:15:23;;;;;;;9.83;7.53;;;;;;;10.50;57.14;98032.25;5060651;27;20963;-48
2022/03/14 10:17:51;;;;;;;8.40;7.70;;;;;;;10.07;59.49;98039.38;5044267;28;20659;-51
2022/03/14 10:20:20;;;;;;;8.60;7.67;;;;;;;10.17;60.05;98037.44;5052382;28;20313;-51
2022/03/14 10:22:48;;;;;;;10.13;9.00;;;;;;;10.23;58.32;98034.16;5044659;28;20292;-48
2022/03/14 10:25:18;;;;;;;7.90;7.23;;;;;;;10.69;56.48;98036.44;5005994;28;20210;-48
2022/03/14 10:27:49;;;;;;;9.33;8.53;;;;;;;10.18;58.65;98040.94;5042216;28;20272;-47
2022/03/14 10:30:26;;;;;;;14.03;7.57;;;;;;;10.50;63.14;98042.84;5018700;28;20713;-48
2022/03/14 10:33:02;;;;;;;5.10;4.70;;;;;;;10.77;74.37;98040.94;5026570;28;20202;-57
2022/03/14 10:35:35;;;;;;;5.33;3.97;;;;;;;11.11;82.30;98044.41;5046421;28;20198;-54
2022/03/14 10:38:05;;;;;;;4.60;4.00;;;;;;;11.11;88.15;98047.91;5050702;28;20245;-55
2022/03/14 10:40:35;;;;;;;5.50;4.03;;;;;;;11.41;83.10;98040.25;5007418;28;20869;-50
2022/03/14 10:43:07;;;;;;;4.57;3.17;;;;;;;11.42;86.29;98043.72;5045069;28;20519;-57
2022/03/14 10:45:39;;;;;;;2.27;2.10;;;;;;;11.22;91.60;98060.00;5021743;28;20202;-51
2022/03/14 10:48:07;;;;;;;2.10;2.00;;;;;;;11.36;91.69;98058.47;5037243;28;20230;-57
2022/03/14 10:50:36;;;;;;;2.90;2.20;;;;;;;11.75;87.67;98050.81;5052770;28;20297;-57
2022/03/14 10:53:08;;;;;;;8.27;5.50;;;;;;;11.49;70.95;98057.97;5049182;28;20342;-56
2022/03/14 10:55:38;;;;;;;7.83;6.20;;;;;;;11.63;64.38;98061.75;5054842;28;20596;-52
2022/03/14 10:58:15;;;;;;;3.57;3.37;;;;;;;11.76;71.27;98066.56;5003183;28;20889;-55
2022/03/14 11:00:53;;;;;;;6.77;3.93;;;;;;;11.38;73.52;98082.22;5050362;28;20322;-50
2022/03/14 11:03:26;;;;;;;2.93;2.70;;;;;;;11.32;83.45;98086.34;5013508;28;20884;-54
2022/03/14 11:05:58;;;;;;;3.17;2.53;;;;;;;11.61;82.75;98077.03;5051358;28;20215;-55
2022/03/14 11:08:34;;;;;;;1.70;1.60;;;;;;;11.40;91.03;98085.53;5042344;28;20407;-52
2022/03/14 11:11:05;;;;;;;4.77;2.07;;;;;;;11.53;86.43;98072.56;5021257;28;20198;-57
2022/03/14 11:13:38;;;;;;;3.17;2.30;;;;;;;11.75;83.83;98078.16;5042769;28;20238;-49
2022/03/14 11:16:12;;;;;;;3.03;1.73;;;;;;;11.69;86.94;98076.19;5047756;28;21238;-56
2022/03/14 11:18:40;;;;;;;1.87;1.50;;;;;;;11.62;78.12;98064.59;5024719;28;20238;-50
2022/03/14 11:21:08;;;;;;;1.93;1.40;;;;;;;11.16;83.73;98081.88;5031627;28;20693;-56
2022/03/14 11:23:37;;;;;;;1.60;1.50;;;;;;;11.03;92.00;98082.38;5048848;28;20303;-51
2022/03/14 11:26:09;;;;;;;1.43;1.43;;;;;;;11.39;90.28;98081.22;5009443;28;21187;-60
2022/03/14 11:28:41;;;;;;;1.80;1.70;;;;;;;11.24;87.29;98083.69;5032608;28;20237;-53
2022/03/14 11:31:10;;;;;;;2.73;1.50;;;;;;;11.24;88.18;98079.25;5031390;28;21307;-57
2022/03/14 11:33:44;;;;;;;2.50;1.43;;;;;;;11.30;88.09;98083.03;5006215;28;20210;-50
2022/03/14 11:36:12;;;;;;;2.07;1.50;;;;;;;11.21;88.93;98079.56;5013910;28;20527;-56
2022/03/14 11:38:41;;;;;;;4.30;2.13;;;;;;;11.28;89.27;98085.88;5041037;28;20301;-55